sensor_id;sensor_type;location;lat;lon;timestamp;pressure;altitude;pressure_sealevel;temperature;humidity
17593;BME280;8915;51.760;14.300;2022-10-14T00:01:04;100884.03;;;8.12;100.00
17593;BME280;8915;51.760;14.300;2022-10-14T00:03:33;100884.94;;;8.11;100.00
17593;BME280;8915;51.760;14.300;2022-10-14T00:06:03;100879.75;;;8.08;100.00
17593;BME280;8915;51.760;14.300;2022-10-14T00:08:30;100882.34;;;8.10;100.00
17593;BME280;8915;51.760;14.300;2022-10-14T00:11:01;100888.38;;;8.12;100.00
17593;BME280;8915;51.760;14.300;2022-10-14T00:13:28;100885.78;;;8.10;100.00
17593;BME280;8915;51.760;14.300;2022-10-14T00:15:57;100879.78;;;8.05;100.00
17593;BME280;8915;51.760;14.300;2022-10-14T00:18:23;100878.97;;;8.02;100.00
17593;BME280;8915;51.760;14.300;2022-10-14T00:20:54;100871.19;;;8.00;100.00
17593;BME280;8915;51.760;14.300;2022-10-14T00:23:20;100869.50;;;7.99;100.00
17593;BME280;8915;51.760;14.300;2022-10-14T00:25:47;100870.44;;;7.93;100.00
17593;BME280;8915;51.760;14.300;2022-10-14T00:28:14;100873.91;;;7.89;100.00
17593;BME280;8915;51.760;14.300;2022-10-14T00:30:40;100870.50;;;7.84;100.00
17593;BME280;8915;51.760;14.300;2022-10-14T00:33:07;100873.19;;;7.80;100.00
17593;BME280;8915;51.760;14.300;2022-10-14T00:35:34;100880.97;;;7.78;100.00
17593;BME280;8915;51.760;14.300;2022-10-14T00:38:03;100878.41;;;7.75;100.00
17593;BME280;8915;51.760;14.300;2022-10-14T00:40:30;100885.38;;;7.70;100.00
17593;BME280;8915;51.760;14.300;2022-10-14T00:42:56;100886.31;;;7.64;100.00
17593;BME280;8915;51.760;14.300;2022-10-14T00:45:23;100883.72;;;7.61;100.00
17593;BME280;8915;51.760;14.300;2022-10-14T00:47:51;100887.22;;;7.58;100.00
17593;BME280;8915;51.760;14.300;2022-10-14T00:50:19;100880.31;;;7.54;100.00
17593;BME280;8915;51.760;14.300;2022-10-14T00:52:46;100883.81;;;7.53;100.00
17593;BME280;8915;51.760;14.300;2022-10-14T00:55:16;100888.16;;;7.53;100.00
17593;BME280;8915;51.760;14.300;2022-10-14T00:57:43;100890.78;;;7.48;100.00
17593;BME280;8915;51.760;14.300;2022-10-14T01:00:12;100891.66;;;7.46;100.00
17593;BME280;8915;51.760;14.300;2022-10-14T01:02:39;100888.22;;;7.44;100.00
17593;BME280;8915;51.760;14.300;2022-10-14T01:05:08;100890.81;;;7.45;100.00
17593;BME280;8915;51.760;14.300;2022-10-14T01:07:44;100885.63;;;7.44;100.00
17593;BME280;8915;51.760;14.300;2022-10-14T01:10:19;100886.50;;;7.44;100.00
17593;BME280;8915;51.760;14.300;2022-10-14T01:13:00;100884.78;;;7.43;100.00
17593;BME280;8915;51.760;14.300;2022-10-14T01:15:36;100886.50;;;7.43;100.00
17593;BME280;8915;51.760;14.300;2022-10-14T01:18:14;100890.81;;;7.44;100.00
17593;BME280;8915;51.760;14.300;2022-10-14T01:21:03;100888.22;;;7.44;100.00
17593;BME280;8915;51.760;14.300;2022-10-14T01:23:42;100876.13;;;7.43;100.00
17593;BME280;8915;51.760;14.300;2022-10-14T01:26:25;100886.50;;;7.43;100.00
17593;BME280;8915;51.760;14.300;2022-10-14T01:29:07;100889.97;;;7.43;100.00
17593;BME280;8915;51.760;14.300;2022-10-14T01:31:43;100891.69;;;7.43;100.00
17593;BME280;8915;51.760;14.300;2022-10-14T01:34:13;100878.75;;;7.41;100.00
17593;BME280;8915;51.760;14.300;2022-10-14T01:36:46;100888.22;;;7.44;100.00
17593;BME280;8915;51.760;14.300;2022-10-14T01:39:18;100880.44;;;7.44;100.00
17593;BME280;8915;51.760;14.300;2022-10-14T01:41:48;100878.72;;;7.44;100.00
17593;BME280;8915;51.760;14.300;2022-10-14T01:44:18;100883.91;;;7.44;100.00
17593;BME280;8915;51.760;14.300;2022-10-14T01:46:51;100876.13;;;7.44;100.00
17593;BME280;8915;51.760;14.300;2022-10-14T01:49:24;100872.66;;;7.42;100.00
17593;BME280;8915;51.760;14.300;2022-10-14T01:51:56;100871.81;;;7.42;100.00
17593;BME280;8915;51.760;14.300;2022-10-14T01:54:29;100871.88;;;7.37;100.00
17593;BME280;8915;51.760;14.300;2022-10-14T01:56:59;100861.50;;;7.34;100.00
17593;BME280;8915;51.760;14.300;2022-10-14T01:59:28;100856.34;;;7.31;100.00
17593;BME280;8915;51.760;14.300;2022-10-14T02:01:57;100855.50;;;7.27;100.00
17593;BME280;8915;51.760;14.300;2022-10-14T02:04:23;100855.53;;;7.26;100.00
17593;BME280;8915;51.760;14.300;2022-10-14T02:06:57;100851.25;;;7.20;100.00
17593;BME280;8915;51.760;14.300;2022-10-14T02:09:33;100859.06;;;7.17;100.00
17593;BME280;8915;51.760;14.300;2022-10-14T02:12:11;100854.78;;;7.13;100.00
17593;BME280;8915;51.760;14.300;2022-10-14T02:14:47;100861.66;;;7.14;100.00
17593;BME280;8915;51.760;14.300;2022-10-14T02:17:20;100861.72;;;7.11;100.00
17593;BME280;8915;51.760;14.300;2022-10-14T02:19:55;100858.22;;;7.12;100.00
17593;BME280;8915;51.760;14.300;2022-10-14T02:22:26;100865.13;;;7.16;100.00
17593;BME280;8915;51.760;14.300;2022-10-14T02:24:59;100864.22;;;7.18;100.00
17593;BME280;8915;51.760;14.300;2022-10-14T02:27:28;100857.34;;;7.16;100.00
17593;BME280;8915;51.760;14.300;2022-10-14T02:29:58;100851.28;;;7.14;100.00
17593;BME280;8915;51.760;14.300;2022-10-14T02:32:26;100855.63;;;7.12;100.00
17593;BME280;8915;51.760;14.300;2022-10-14T02:34:56;100852.19;;;7.10;100.00
17593;BME280;8915;51.760;14.300;2022-10-14T02:37:26;100853.94;;;7.09;100.00
17593;BME280;8915;51.760;14.300;2022-10-14T02:39:58;100847.00;;;7.10;100.00
17593;BME280;8915;51.760;14.300;2022-10-14T02:42:30;100851.34;;;7.09;100.00
17593;BME280;8915;51.760;14.300;2022-10-14T02:44:58;100842.72;;;7.07;100.00
17593;BME280;8915;51.760;14.300;2022-10-14T02:47:27;100845.31;;;7.07;100.00
17593;BME280;8915;51.760;14.300;2022-10-14T02:49:53;100840.09;;;7.10;100.00
17593;BME280;8915;51.760;14.300;2022-10-14T02:52:21;100829.72;;;7.09;100.00
17593;BME280;8915;51.760;14.300;2022-10-14T02:54:47;100831.44;;;7.11;100.00
17593;BME280;8915;51.760;14.300;2022-10-14T02:57:14;100834.03;;;7.14;100.00
17593;BME280;8915;51.760;14.300;2022-10-14T02:59:41;100840.06;;;7.16;100.00
17593;BME280;8915;51.760;14.300;2022-10-14T03:02:07;100843.47;;;7.18;100.00
17593;BME280;8915;51.760;14.300;2022-10-14T03:04:38;100841.72;;;7.20;100.00
17593;BME280;8915;51.760;14.300;2022-10-14T03:07:05;100839.13;;;7.22;100.00
17593;BME280;8915;51.760;14.300;2022-10-14T03:09:38;100848.59;;;7.26;100.00
17593;BME280;8915;51.760;14.300;2022-10-14T03:12:06;100843.41;;;7.28;100.00
17593;BME280;8915;51.760;14.300;2022-10-14T03:14:33;100852.00;;;7.30;100.00
17593;BME280;8915;51.760;14.300;2022-10-14T03:17:01;100837.31;;;7.32;100.00
17593;BME280;8915;51.760;14.300;2022-10-14T03:19:31;100843.34;;;7.35;100.00
17593;BME280;8915;51.760;14.300;2022-10-14T03:21:58;100840.75;;;7.37;100.00
17593;BME280;8915;51.760;14.300;2022-10-14T03:24:25;100847.63;;;7.39;100.00
17593;BME280;8915;51.760;14.300;2022-10-14T03:27:16;100845.00;;;7.44;100.00
17593;BME280;8915;51.760;14.300;2022-10-14T03:29:45;100839.75;;;7.49;100.00
17593;BME280;8915;51.760;14.300;2022-10-14T03:32:17;100838.88;;;7.51;100.00
17593;BME280;8915;51.760;14.300;2022-10-14T03:35:10;100840.56;;;7.54;100.00
17593;BME280;8915;51.760;14.300;2022-10-14T03:37:41;100843.97;;;7.57;100.00
17593;BME280;8915;51.760;14.300;2022-10-14T03:40:09;100834.41;;;7.61;100.00
17593;BME280;8915;51.760;14.300;2022-10-14T03:42:35;100840.44;;;7.63;100.00
17593;BME280;8915;51.760;14.300;2022-10-14T03:45:04;100837.84;;;7.65;100.00
17593;BME280;8915;51.760;14.300;2022-10-14T03:47:31;100838.69;;;7.67;100.00
17593;BME280;8915;51.760;14.300;2022-10-14T03:49:58;100837.81;;;7.68;100.00
17593;BME280;8915;51.760;14.300;2022-10-14T03:52:33;100832.59;;;7.72;100.00
17593;BME280;8915;51.760;14.300;2022-10-14T03:55:12;100836.88;;;7.75;100.00
17593;BME280;8915;51.760;14.300;2022-10-14T03:57:41;100829.94;;;7.77;100.00
17593;BME280;8915;51.760;14.300;2022-10-14T04:00:10;100826.47;;;7.78;100.00
17593;BME280;8915;51.760;14.300;2022-10-14T04:02:39;100833.31;;;7.84;100.00
17593;BME280;8915;51.760;14.300;2022-10-14T04:05:11;100825.50;;;7.85;100.00
17593;BME280;8915;51.760;14.300;2022-10-14T04:07:39;100822.91;;;7.87;100.00
17593;BME280;8915;51.760;14.300;2022-10-14T04:10:07;100824.59;;;7.88;100.00
17593;BME280;8915;51.760;14.300;2022-10-14T04:12:37;100819.38;;;7.91;100.00
17593;BME280;8915;51.760;14.300;2022-10-14T04:15:09;100812.44;;;7.93;100.00
17593;BME280;8915;51.760;14.300;2022-10-14T04:17:54;100812.44;;;7.93;100.00
17593;BME280;8915;51.760;14.300;2022-10-14T04:20:21;100806.38;;;7.94;100.00
17593;BME280;8915;51.760;14.300;2022-10-14T04:22:51;100801.16;;;7.95;100.00
17593;BME280;8915;51.760;14.300;2022-10-14T04:25:19;100800.28;;;7.96;100.00
17593;BME280;8915;51.760;14.300;2022-10-14T04:27:52;100802.00;;;7.97;100.00
17593;BME280;8915;51.760;14.300;2022-10-14T04:30:21;100796.81;;;7.97;100.00
17593;BME280;8915;51.760;14.300;2022-10-14T04:32:52;100790.75;;;7.99;100.00
17593;BME280;8915;51.760;14.300;2022-10-14T04:35:20;100795.03;;;8.00;100.00
17593;BME280;8915;51.760;14.300;2022-10-14T04:37:53;100800.22;;;8.01;100.00
17593;BME280;8915;51.760;14.300;2022-10-14T04:40:22;100789.81;;;8.03;100.00
17593;BME280;8915;51.760;14.300;2022-10-14T04:42:54;100784.63;;;8.01;100.00
17593;BME280;8915;51.760;14.300;2022-10-14T04:45:26;100787.25;;;8.01;100.00
17593;BME280;8915;51.760;14.300;2022-10-14T04:47:58;100788.09;;;8.00;100.00
17593;BME280;8915;51.760;14.300;2022-10-14T04:50:25;100791.59;;;7.99;100.00
17593;BME280;8915;51.760;14.300;2022-10-14T04:53:10;100784.69;;;7.98;100.00
17593;BME280;8915;51.760;14.300;2022-10-14T04:55:43;100786.41;;;7.99;100.00
17593;BME280;8915;51.760;14.300;2022-10-14T04:58:11;100789.00;;;7.99;100.00
17593;BME280;8915;51.760;14.300;2022-10-14T05:00:41;100789.84;;;8.00;100.00
17593;BME280;8915;51.760;14.300;2022-10-14T05:03:26;100784.63;;;8.01;100.00
17593;BME280;8915;51.760;14.300;2022-10-14T05:05:52;100786.31;;;8.05;100.00
17593;BME280;8915;51.760;14.300;2022-10-14T05:08:19;100788.03;;;8.06;100.00
17593;BME280;8915;51.760;14.300;2022-10-14T05:10:49;100788.03;;;8.08;100.00
17593;BME280;8915;51.760;14.300;2022-10-14T05:13:31;100786.25;;;8.10;100.00
17593;BME280;8915;51.760;14.300;2022-10-14T05:16:02;100785.34;;;8.12;100.00
17593;BME280;8915;51.760;14.300;2022-10-14T05:18:29;100781.88;;;8.13;100.00
17593;BME280;8915;51.760;14.300;2022-10-14T05:21:02;100785.28;;;8.17;100.00
17593;BME280;8915;51.760;14.300;2022-10-14T05:23:43;100787.88;;;8.19;100.00
17593;BME280;8915;51.760;14.300;2022-10-14T05:26:10;100790.50;;;8.17;100.00
17593;BME280;8915;51.760;14.300;2022-10-14T05:28:40;100784.44;;;8.17;100.00
17593;BME280;8915;51.760;14.300;2022-10-14T05:31:07;100784.44;;;8.18;100.00
17593;BME280;8915;51.760;14.300;2022-10-14T05:33:41;100792.22;;;8.20;100.00
17593;BME280;8915;51.760;14.300;2022-10-14T05:36:08;100792.13;;;8.23;100.00
17593;BME280;8915;51.760;14.300;2022-10-14T05:38:35;100780.78;;;8.28;100.00
17593;BME280;8915;51.760;14.300;2022-10-14T05:41:02;100782.50;;;8.31;100.00
17593;BME280;8915;51.760;14.300;2022-10-14T05:43:29;100786.78;;;8.33;100.00
17593;BME280;8915;51.760;14.300;2022-10-14T05:45:56;100783.31;;;8.36;100.00
17593;BME280;8915;51.760;14.300;2022-10-14T05:48:26;100791.06;;;8.39;100.00
17593;BME280;8915;51.760;14.300;2022-10-14T05:50:54;100791.03;;;8.42;100.00
17593;BME280;8915;51.760;14.300;2022-10-14T05:53:23;100790.97;;;8.47;100.00
17593;BME280;8915;51.760;14.300;2022-10-14T05:56:00;100788.31;;;8.51;100.00
17593;BME280;8915;51.760;14.300;2022-10-14T05:58:26;100783.91;;;8.57;100.00
17593;BME280;8915;51.760;14.300;2022-10-14T06:00:53;100789.00;;;8.61;100.00
17593;BME280;8915;51.760;14.300;2022-10-14T06:03:21;100792.41;;;8.66;100.00
17593;BME280;8915;51.760;14.300;2022-10-14T06:05:48;100795.78;;;8.71;100.00
17593;BME280;8915;51.760;14.300;2022-10-14T06:08:15;100802.66;;;8.74;100.00
17593;BME280;8915;51.760;14.300;2022-10-14T06:10:44;100797.44;;;8.77;100.00
17593;BME280;8915;51.760;14.300;2022-10-14T06:13:10;100801.72;;;8.81;100.00
17593;BME280;8915;51.760;14.300;2022-10-14T06:15:39;100799.94;;;8.85;100.00
17593;BME280;8915;51.760;14.300;2022-10-14T06:18:05;100799.84;;;8.88;100.00
17593;BME280;8915;51.760;14.300;2022-10-14T06:20:33;100792.00;;;8.91;100.00
17593;BME280;8915;51.760;14.300;2022-10-14T06:23:01;100807.56;;;8.96;100.00
17593;BME280;8915;51.760;14.300;2022-10-14T06:25:28;100805.75;;;8.99;100.00
17593;BME280;8915;51.760;14.300;2022-10-14T06:27:54;100803.06;;;9.04;100.00
17593;BME280;8915;51.760;14.300;2022-10-14T06:30:21;100797.81;;;9.07;100.00
17593;BME280;8915;51.760;14.300;2022-10-14T06:32:47;100802.06;;;9.11;100.00
17593;BME280;8915;51.760;14.300;2022-10-14T06:35:14;100798.56;;;9.14;100.00
17593;BME280;8915;51.760;14.300;2022-10-14T06:37:44;100798.50;;;9.18;100.00
17593;BME280;8915;51.760;14.300;2022-10-14T06:40:10;100803.59;;;9.23;100.00
17593;BME280;8915;51.760;14.300;2022-10-14T06:42:37;100793.19;;;9.24;100.00
17593;BME280;8915;51.760;14.300;2022-10-14T06:45:05;100801.78;;;9.28;100.00
17593;BME280;8915;51.760;14.300;2022-10-14T06:47:31;100798.22;;;9.32;100.00
17593;BME280;8915;51.760;14.300;2022-10-14T06:49:57;100807.72;;;9.36;100.00
17593;BME280;8915;51.760;14.300;2022-10-14T06:52:24;100801.56;;;9.40;100.00
17593;BME280;8915;51.760;14.300;2022-10-14T06:54:52;100802.34;;;9.44;100.00
17593;BME280;8915;51.760;14.300;2022-10-14T06:57:18;100804.91;;;9.47;100.00
17593;BME280;8915;51.760;14.300;2022-10-14T06:59:45;100812.66;;;9.52;100.00
17593;BME280;8915;51.760;14.300;2022-10-14T07:02:11;100803.03;;;9.55;100.00
17593;BME280;8915;51.760;14.300;2022-10-14T07:04:38;100800.31;;;9.60;100.00
17593;BME280;8915;51.760;14.300;2022-10-14T07:07:05;100802.81;;;9.66;100.00
17593;BME280;8915;51.760;14.300;2022-10-14T07:09:31;100804.47;;;9.70;100.00
17593;BME280;8915;51.760;14.300;2022-10-14T07:11:59;100806.09;;;9.76;100.00
17593;BME280;8915;51.760;14.300;2022-10-14T07:14:26;100801.69;;;9.78;100.00
17593;BME280;8915;51.760;14.300;2022-10-14T07:16:52;100805.94;;;9.83;100.00
17593;BME280;8915;51.760;14.300;2022-10-14T07:19:19;100808.47;;;9.86;100.00
17593;BME280;8915;51.760;14.300;2022-10-14T07:21:45;100808.38;;;9.93;100.00
17593;BME280;8915;51.760;14.300;2022-10-14T07:24:12;100804.78;;;9.97;100.00
17593;BME280;8915;51.760;14.300;2022-10-14T07:26:38;100802.97;;;10.00;100.00
17593;BME280;8915;51.760;14.300;2022-10-14T07:29:07;100802.91;;;10.05;100.00
17593;BME280;8915;51.760;14.300;2022-10-14T07:31:33;100802.81;;;10.10;100.00
17593;BME280;8915;51.760;14.300;2022-10-14T07:34:00;100800.94;;;10.15;100.00
17593;BME280;8915;51.760;14.300;2022-10-14T07:36:27;100803.44;;;10.21;100.00
17593;BME280;8915;51.760;14.300;2022-10-14T07:38:53;100803.28;;;10.27;100.00
17593;BME280;8915;51.760;14.300;2022-10-14T07:41:22;100791.88;;;10.34;100.00
17593;BME280;8915;51.760;14.300;2022-10-14T07:43:50;100795.22;;;10.39;100.00
17593;BME280;8915;51.760;14.300;2022-10-14T07:46:20;100802.03;;;10.47;100.00
17593;BME280;8915;51.760;14.300;2022-10-14T07:48:53;100809.66;;;10.54;100.00
17593;BME280;8915;51.760;14.300;2022-10-14T07:51:19;100804.25;;;10.62;100.00
17593;BME280;8915;51.760;14.300;2022-10-14T07:53:46;100804.97;;;10.69;100.00
17593;BME280;8915;51.760;14.300;2022-10-14T07:56:14;100800.47;;;10.75;100.00
17593;BME280;8915;51.760;14.300;2022-10-14T07:58:40;100794.22;;;10.83;100.00
17593;BME280;8915;51.760;14.300;2022-10-14T08:01:07;100796.63;;;10.90;100.00
17593;BME280;8915;51.760;14.300;2022-10-14T08:03:35;100806.06;;;10.96;100.00
17593;BME280;8915;51.760;14.300;2022-10-14T08:06:03;100804.13;;;11.04;100.00
17593;BME280;8915;51.760;14.300;2022-10-14T08:08:30;100806.56;;;11.12;100.00
17593;BME280;8915;51.760;14.300;2022-10-14T08:11:01;100811.53;;;11.21;100.00
17593;BME280;8915;51.760;14.300;2022-10-14T08:13:28;100817.31;;;11.32;100.00
17593;BME280;8915;51.760;14.300;2022-10-14T08:15:54;100816.19;;;11.43;100.00
17593;BME280;8915;51.760;14.300;2022-10-14T08:18:22;100817.72;;;11.50;100.00
17593;BME280;8915;51.760;14.300;2022-10-14T08:20:49;100819.19;;;11.60;100.00
17593;BME280;8915;51.760;14.300;2022-10-14T08:23:16;100823.28;;;11.70;100.00
17593;BME280;8915;51.760;14.300;2022-10-14T08:25:42;100820.44;;;11.78;100.00
17593;BME280;8915;51.760;14.300;2022-10-14T08:28:09;100822.84;;;11.86;100.00
17593;BME280;8915;51.760;14.300;2022-10-14T08:30:35;100817.34;;;11.97;100.00
17593;BME280;8915;51.760;14.300;2022-10-14T08:33:02;100819.69;;;12.06;100.00
17593;BME280;8915;51.760;14.300;2022-10-14T08:35:28;100821.94;;;12.18;100.00
17593;BME280;8915;51.760;14.300;2022-10-14T08:37:57;100813.78;;;12.29;100.00
17593;BME280;8915;51.760;14.300;2022-10-14T08:40:26;100809.13;;;12.39;100.00
17593;BME280;8915;51.760;14.300;2022-10-14T08:42:59;100817.56;;;12.47;100.00
17593;BME280;8915;51.760;14.300;2022-10-14T08:45:31;100810.25;;;12.58;100.00
17593;BME280;8915;51.760;14.300;2022-10-14T08:48:00;100811.88;;;12.62;100.00
17593;BME280;8915;51.760;14.300;2022-10-14T08:50:31;100813.28;;;12.73;100.00
17593;BME280;8915;51.760;14.300;2022-10-14T08:53:03;100817.28;;;12.84;100.00
17593;BME280;8915;51.760;14.300;2022-10-14T08:55:34;100812.50;;;12.97;100.00
17593;BME280;8915;51.760;14.300;2022-10-14T08:58:06;100811.34;;;13.06;100.00
17593;BME280;8915;51.760;14.300;2022-10-14T09:00:34;100812.00;;;13.13;100.00
17593;BME280;8915;51.760;14.300;2022-10-14T09:03:04;100811.41;;;13.30;100.00
17593;BME280;8915;51.760;14.300;2022-10-14T09:05:37;100815.50;;;13.38;100.00
17593;BME280;8915;51.760;14.300;2022-10-14T09:08:05;100818.66;;;13.48;100.00
17593;BME280;8915;51.760;14.300;2022-10-14T09:10:40;100823.81;;;13.51;100.00
17593;BME280;8915;51.760;14.300;2022-10-14T09:13:12;100819.06;;;13.61;100.00
17593;BME280;8915;51.760;14.300;2022-10-14T09:15:41;100824.09;;;13.67;100.00
17593;BME280;8915;51.760;14.300;2022-10-14T09:18:19;100823.72;;;13.78;100.00
17593;BME280;8915;51.760;14.300;2022-10-14T09:20:47;100827.72;;;13.88;100.00
17593;BME280;8915;51.760;14.300;2022-10-14T09:23:18;100824.75;;;13.97;100.00
17593;BME280;8915;51.760;14.300;2022-10-14T09:25:55;100814.84;;;14.06;100.00
17593;BME280;8915;51.760;14.300;2022-10-14T09:28:28;100820.53;;;14.17;100.00
17593;BME280;8915;51.760;14.300;2022-10-14T09:30:56;100818.59;;;14.22;100.00
17593;BME280;8915;51.760;14.300;2022-10-14T09:33:24;100818.63;;;14.20;100.00
17593;BME280;8915;51.760;14.300;2022-10-14T09:35:52;100812.28;;;14.26;100.00
17593;BME280;8915;51.760;14.300;2022-10-14T09:38:20;100815.75;;;14.28;100.00
17593;BME280;8915;51.760;14.300;2022-10-14T09:40:48;100811.09;;;14.35;100.00
17593;BME280;8915;51.760;14.300;2022-10-14T09:43:20;100805.50;;;14.44;100.00
17593;BME280;8915;51.760;14.300;2022-10-14T09:45:51;100812.81;;;14.36;100.00
17593;BME280;8915;51.760;14.300;2022-10-14T09:48:26;100800.44;;;14.39;100.00
17593;BME280;8915;51.760;14.300;2022-10-14T09:50:55;100806.41;;;14.43;100.00
17593;BME280;8915;51.760;14.300;2022-10-14T09:53:26;100798.84;;;14.35;100.00
17593;BME280;8915;51.760;14.300;2022-10-14T09:55:56;100807.69;;;14.33;100.00
17593;BME280;8915;51.760;14.300;2022-10-14T09:58:29;100794.63;;;14.31;100.00
17593;BME280;8915;51.760;14.300;2022-10-14T10:00:58;100796.81;;;14.42;100.00
17593;BME280;8915;51.760;14.300;2022-10-14T10:03:28;100797.44;;;14.49;100.00
17593;BME280;8915;51.760;14.300;2022-10-14T10:06:05;100796.59;;;14.48;100.00
17593;BME280;8915;51.760;14.300;2022-10-14T10:08:34;100794.03;;;14.47;100.00
17593;BME280;8915;51.760;14.300;2022-10-14T10:11:03;100796.47;;;14.51;100.00
17593;BME280;8915;51.760;14.300;2022-10-14T10:13:36;100790.19;;;14.55;100.00
17593;BME280;8915;51.760;14.300;2022-10-14T10:16:06;100789.16;;;14.60;100.00
17593;BME280;8915;51.760;14.300;2022-10-14T10:18:33;100786.53;;;14.60;100.00
17593;BME280;8915;51.760;14.300;2022-10-14T10:21:05;100778.84;;;14.55;100.00
17593;BME280;8915;51.760;14.300;2022-10-14T10:23:34;100783.06;;;14.59;100.00
17593;BME280;8915;51.760;14.300;2022-10-14T10:26:16;100772.34;;;14.65;100.00
17593;BME280;8915;51.760;14.300;2022-10-14T10:28:47;100779.03;;;14.72;100.00
17593;BME280;8915;51.760;14.300;2022-10-14T10:31:23;100773.59;;;14.77;100.00
17593;BME280;8915;51.760;14.300;2022-10-14T10:33:57;100765.88;;;14.74;100.00
17593;BME280;8915;51.760;14.300;2022-10-14T10:36:30;100764.16;;;14.73;100.00
17593;BME280;8915;51.760;14.300;2022-10-14T10:39:04;100760.34;;;14.80;100.00
17593;BME280;8915;51.760;14.300;2022-10-14T10:41:56;100760.44;;;14.99;100.00
17593;BME280;8915;51.760;14.300;2022-10-14T10:44:36;100760.81;;;15.10;100.00
17593;BME280;8915;51.760;14.300;2022-10-14T10:47:16;100764.31;;;15.11;100.00
17593;BME280;8915;51.760;14.300;2022-10-14T10:50:16;100762.06;;;15.22;100.00
17593;BME280;8915;51.760;14.300;2022-10-14T10:55:49;100764.09;;;15.57;100.00
17593;BME280;8915;51.760;14.300;2022-10-14T10:58:29;100766.78;;;15.74;100.00
17593;BME280;8915;51.760;14.300;2022-10-14T11:01:06;100756.31;;;15.93;100.00
17593;BME280;8915;51.760;14.300;2022-10-14T11:03:47;100761.16;;;16.02;100.00
17593;BME280;8915;51.760;14.300;2022-10-14T11:06:21;100753.59;;;16.14;100.00
17593;BME280;8915;51.760;14.300;2022-10-14T11:09:10;100753.72;;;16.30;100.00
17593;BME280;8915;51.760;14.300;2022-10-14T11:12:06;100752.03;;;16.46;100.00
17593;BME280;8915;51.760;14.300;2022-10-14T11:14:59;100753.31;;;16.56;100.00
17593;BME280;8915;51.760;14.300;2022-10-14T11:17:33;100753.94;;;16.61;100.00
17593;BME280;8915;51.760;14.300;2022-10-14T11:20:11;100748.59;;;16.63;100.00
17593;BME280;8915;51.760;14.300;2022-10-14T11:23:02;100746.97;;;16.43;100.00
17593;BME280;8915;51.760;14.300;2022-10-14T11:25:41;100745.38;;;16.39;100.00
17593;BME280;8915;51.760;14.300;2022-10-14T11:28:18;100739.69;;;16.48;100.00
17593;BME280;8915;51.760;14.300;2022-10-14T11:30:53;100749.03;;;16.36;100.00
17593;BME280;8915;51.760;14.300;2022-10-14T11:33:36;100733.91;;;16.22;100.00
17593;BME280;8915;51.760;14.300;2022-10-14T11:36:12;100725.50;;;16.33;100.00
17593;BME280;8915;51.760;14.300;2022-10-14T11:38:50;100730.63;;;16.54;100.00
17593;BME280;8915;51.760;14.300;2022-10-14T11:41:25;100733.41;;;16.51;100.00
17593;BME280;8915;51.760;14.300;2022-10-14T11:44:02;100725.66;;;16.47;100.00
17593;BME280;8915;51.760;14.300;2022-10-14T11:46:35;100727.19;;;16.34;100.00
17593;BME280;8915;51.760;14.300;2022-10-14T11:49:04;100721.94;;;16.34;100.00
17593;BME280;8915;51.760;14.300;2022-10-14T11:51:38;100732.16;;;16.40;100.00
17593;BME280;8915;51.760;14.300;2022-10-14T11:54:09;100724.41;;;16.37;100.00
17593;BME280;8915;51.760;14.300;2022-10-14T11:56:41;100724.25;;;16.40;100.00
17593;BME280;8915;51.760;14.300;2022-10-14T11:59:28;100721.34;;;16.46;100.00
17593;BME280;8915;51.760;14.300;2022-10-14T12:02:11;100718.53;;;16.50;100.00
17593;BME280;8915;51.760;14.300;2022-10-14T12:04:42;100719.63;;;16.45;100.00
17593;BME280;8915;51.760;14.300;2022-10-14T12:07:13;100708.81;;;16.52;100.00
17593;BME280;8915;51.760;14.300;2022-10-14T12:09:47;100714.16;;;16.50;100.00
17593;BME280;8915;51.760;14.300;2022-10-14T12:12:18;100705.91;;;16.39;100.00
17593;BME280;8915;51.760;14.300;2022-10-14T12:14:51;100703.75;;;16.30;100.00
17593;BME280;8915;51.760;14.300;2022-10-14T12:17:23;100702.03;;;16.28;100.00
17593;BME280;8915;51.760;14.300;2022-10-14T12:19:50;100699.19;;;16.33;100.00
17593;BME280;8915;51.760;14.300;2022-10-14T12:22:19;100707.59;;;16.22;100.00
17593;BME280;8915;51.760;14.300;2022-10-14T12:24:49;100700.88;;;16.17;100.00
17593;BME280;8915;51.760;14.300;2022-10-14T12:27:18;100704.00;;;16.06;100.00
17593;BME280;8915;51.760;14.300;2022-10-14T12:29:50;100699.94;;;15.99;100.00
17593;BME280;8915;51.760;14.300;2022-10-14T12:32:19;100701.28;;;16.07;100.00
17593;BME280;8915;51.760;14.300;2022-10-14T12:34:49;100694.91;;;16.13;100.00
17593;BME280;8915;51.760;14.300;2022-10-14T12:37:48;100694.44;;;16.22;100.00
17593;BME280;8915;51.760;14.300;2022-10-14T12:40:22;100689.88;;;16.26;100.00
17593;BME280;8915;51.760;14.300;2022-10-14T12:42:57;100687.47;;;16.21;100.00
17593;BME280;8915;51.760;14.300;2022-10-14T12:45:27;100682.44;;;16.17;100.00
17593;BME280;8915;51.760;14.300;2022-10-14T12:48:04;100680.94;;;16.11;100.00
17593;BME280;8915;51.760;14.300;2022-10-14T12:50:34;100680.16;;;16.09;100.00
17593;BME280;8915;51.760;14.300;2022-10-14T12:53:05;100679.97;;;16.14;100.00
17593;BME280;8915;51.760;14.300;2022-10-14T12:55:38;100682.59;;;16.14;100.00
17593;BME280;8915;51.760;14.300;2022-10-14T12:58:22;100682.28;;;16.02;100.00
17593;BME280;8915;51.760;14.300;2022-10-14T13:00:58;100680.69;;;15.98;100.00
17593;BME280;8915;51.760;14.300;2022-10-14T13:03:27;100681.00;;;15.92;100.00
17593;BME280;8915;51.760;14.300;2022-10-14T13:12:38;100674.22;;;15.48;100.00
17593;BME280;8915;51.760;14.300;2022-10-14T13:15:32;100671.09;;;15.40;100.00